Time;durP1;ratioP1;P1;durP2;ratioP2;P2;SDS_P1;SDS_P2;PMS_P1;PMS_P2;Temp;Humidity;BMP_temperature;BMP_pressure;BME280_temperature;BME280_humidity;BME280_pressure;Samples;Min_cycle;Max_cycle;Signal;HPM_P1;HPM_P2
2022/11/09 00:00:04;;;;;;;3.20;1.30;;;15.40;74.00;;;;;;5073545;28;20021;-53
2022/11/09 00:02:30;;;;;;;3.05;1.67;;;15.40;74.00;;;;;;5072396;28;20492;-49
2022/11/09 00:04:56;;;;;;;1.38;1.27;;;15.30;74.00;;;;;;5073442;28;20032;-50
2022/11/09 00:07:21;;;;;;;2.70;1.00;;;15.30;74.20;;;;;;5073116;28;20064;-50
2022/11/09 00:09:47;;;;;;;1.35;1.25;;;15.30;74.20;;;;;;5073134;28;20133;-49
2022/11/09 00:12:13;;;;;;;3.03;1.65;;;15.30;74.00;;;;;;5074011;28;20036;-49
2022/11/09 00:14:38;;;;;;;5.18;1.50;;;15.40;74.00;;;;;;5073168;28;20025;-49
2022/11/09 00:17:04;;;;;;;1.83;1.10;;;15.30;74.10;;;;;;5073262;28;20058;-50
2022/11/09 00:19:30;;;;;;;2.40;1.35;;;15.40;74.00;;;;;;5073323;28;20379;-52
2022/11/09 00:21:55;;;;;;;3.70;1.92;;;15.40;73.90;;;;;;5073106;28;20099;-50
2022/11/09 00:24:21;;;;;;;3.10;1.38;;;15.30;74.10;;;;;;5073026;28;20095;-49
2022/11/09 00:26:46;;;;;;;9.25;1.17;;;15.40;74.10;;;;;;5073003;28;20060;-48
2022/11/09 00:29:12;;;;;;;2.38;1.10;;;15.40;74.00;;;;;;5077033;28;20071;-50
2022/11/09 00:31:38;;;;;;;3.38;1.65;;;15.30;74.40;;;;;;5077090;28;20028;-49
2022/11/09 00:34:03;;;;;;;2.22;1.10;;;15.30;74.50;;;;;;5077187;28;20423;-49
2022/11/09 00:36:29;;;;;;;4.03;1.63;;;15.30;74.30;;;;;;5077233;28;20036;-52
2022/11/09 00:38:58;;;;;;;1.85;1.40;;;15.30;74.40;;;;;;5076906;28;20032;-49
2022/11/09 00:41:25;;;;;;;3.20;1.17;;;15.40;74.20;;;;;;5077171;28;20431;-49
2022/11/09 00:43:51;;;;;;;1.95;1.15;;;15.30;74.30;;;;;;5077124;28;20464;-49
2022/11/09 00:46:18;;;;;;;5.18;1.20;;;15.30;74.50;;;;;;5076695;28;20466;-47
2022/11/09 00:48:44;;;;;;;2.13;1.27;;;15.10;74.80;;;;;;5076851;28;20044;-49
2022/11/09 00:51:10;;;;;;;1.58;1.15;;;15.10;75.00;;;;;;5077024;28;20191;-48
2022/11/09 00:53:35;;;;;;;2.00;1.33;;;15.10;75.10;;;;;;5076863;28;20020;-50
2022/11/09 00:56:04;;;;;;;3.00;1.13;;;15.00;75.20;;;;;;5076821;28;20115;-50
2022/11/09 00:58:32;;;;;;;2.80;1.27;;;15.00;75.40;;;;;;5076946;28;20093;-50
2022/11/09 01:00:59;;;;;;;4.43;0.95;;;15.00;75.40;;;;;;5076690;28;20033;-51
2022/11/09 01:03:25;;;;;;;1.45;0.93;;;14.90;75.50;;;;;;5076464;28;20060;-48
2022/11/09 01:05:51;;;;;;;2.88;0.93;;;14.80;75.60;;;;;;5076075;28;20075;-48
2022/11/09 01:08:18;;;;;;;3.25;1.30;;;14.80;75.90;;;;;;5076364;28;20036;-48
2022/11/09 01:10:47;;;;;;;1.35;1.10;;;14.80;75.40;;;;;;5076308;28;20380;-49
2022/11/09 01:13:14;;;;;;;3.75;1.23;;;15.00;75.10;;;;;;5076585;28;20147;-48
2022/11/09 01:15:44;;;;;;;2.20;1.20;;;14.90;75.20;;;;;;5076474;28;20161;-47
2022/11/09 01:18:10;;;;;;;2.60;1.27;;;14.80;75.30;;;;;;5076464;28;20039;-47
2022/11/09 01:20:41;;;;;;;3.05;1.30;;;14.80;75.60;;;;;;5076186;28;20040;-48
2022/11/09 01:23:07;;;;;;;3.28;2.33;;;14.70;75.60;;;;;;5076085;28;20024;-48
2022/11/09 01:25:33;;;;;;;3.83;1.35;;;14.80;75.80;;;;;;5074779;28;20476;-47
2022/11/09 01:27:59;;;;;;;2.83;1.23;;;14.70;75.70;;;;;;5076333;28;20086;-51
2022/11/09 01:30:25;;;;;;;1.67;1.55;;;14.60;76.10;;;;;;5076063;28;20036;-48
2022/11/09 01:32:52;;;;;;;1.90;1.25;;;14.70;76.00;;;;;;5075107;28;20028;-48
2022/11/09 01:35:18;;;;;;;3.03;1.33;;;14.60;76.20;;;;;;5076223;28;20052;-48
2022/11/09 01:37:43;;;;;;;9.05;4.32;;;14.70;75.90;;;;;;5074411;28;20507;-48
2022/11/09 01:40:10;;;;;;;1.13;0.95;;;14.70;75.80;;;;;;5075504;28;20029;-51
2022/11/09 01:42:37;;;;;;;1.83;1.00;;;14.80;75.70;;;;;;5075684;28;20055;-48
2022/11/09 01:45:17;;;;;;;2.92;1.27;;;14.70;75.70;;;;;;5075794;28;20081;-48
2022/11/09 01:47:51;;;;;;;1.77;0.95;;;14.60;76.00;;;;;;5075970;28;20461;-48
2022/11/09 01:50:31;;;;;;;1.83;0.85;;;14.70;75.90;;;;;;5075706;28;20430;-48
2022/11/09 01:52:58;;;;;;;4.82;1.02;;;14.60;76.00;;;;;;5074278;28;20029;-48
2022/11/09 01:55:24;;;;;;;1.85;1.20;;;14.70;75.90;;;;;;5075933;28;20511;-49
2022/11/09 01:58:01;;;;;;;2.35;1.30;;;14.70;75.80;;;;;;5075486;28;20016;-48
2022/11/09 02:00:29;;;;;;;3.25;1.02;;;14.80;75.40;;;;;;5075639;28;20112;-48
2022/11/09 02:03:11;;;;;;;3.65;1.30;;;14.80;75.40;;;;;;5075300;28;20078;-49
2022/11/09 02:05:39;;;;;;;1.30;0.95;;;14.80;75.20;;;;;;5074978;28;20068;-49
2022/11/09 02:08:06;;;;;;;3.35;1.15;;;14.70;75.70;;;;;;5075293;28;20020;-47
2022/11/09 02:11:00;;;;;;;1.90;1.02;;;14.60;75.60;;;;;;5075260;28;20016;-50
2022/11/09 02:13:29;;;;;;;1.77;1.00;;;14.50;75.90;;;;;;5071377;28;20107;-48
2022/11/09 02:15:55;;;;;;;3.28;0.90;;;14.50;76.30;;;;;;5074886;28;20016;-50
2022/11/09 02:18:20;;;;;;;2.53;1.20;;;14.50;75.90;;;;;;5075075;28;20085;-48
2022/11/09 02:20:52;;;;;;;2.50;1.00;;;14.40;76.20;;;;;;5073580;28;20021;-47
2022/11/09 02:23:18;;;;;;;5.10;1.65;;;14.50;75.90;;;;;;5075071;28;20469;-48
2022/11/09 02:25:51;;;;;;;2.47;1.40;;;14.30;76.00;;;;;;5074682;28;20054;-47
2022/11/09 02:28:17;;;;;;;2.03;0.95;;;14.30;76.40;;;;;;5075001;28;20016;-49
2022/11/09 02:30:59;;;;;;;4.75;1.00;;;14.50;75.90;;;;;;5074925;28;20016;-48
2022/11/09 02:33:25;;;;;;;1.83;1.27;;;14.40;76.00;;;;;;5074689;28;20024;-48
2022/11/09 02:35:51;;;;;;;1.58;0.98;;;14.40;75.90;;;;;;5075138;28;20029;-48
2022/11/09 02:38:16;;;;;;;3.00;1.20;;;14.40;76.00;;;;;;5074538;28;20029;-49
2022/11/09 02:40:48;;;;;;;6.32;1.52;;;14.50;75.70;;;;;;5074467;28;20022;-49
2022/11/09 02:43:15;;;;;;;4.00;1.20;;;14.40;75.90;;;;;;5074868;28;20032;-48
2022/11/09 02:45:41;;;;;;;1.85;1.38;;;14.30;76.20;;;;;;5073089;28;20112;-47
2022/11/09 02:48:06;;;;;;;2.00;1.27;;;14.30;76.10;;;;;;5074449;28;20484;-48
2022/11/09 02:50:32;;;;;;;6.22;1.60;;;14.30;76.20;;;;;;5073808;28;20024;-48
2022/11/09 02:52:58;;;;;;;4.35;1.60;;;14.30;76.40;;;;;;5074418;28;20032;-49
2022/11/09 02:55:23;;;;;;;3.10;1.60;;;14.40;75.80;;;;;;5074269;28;20025;-50
2022/11/09 02:57:49;;;;;;;4.50;1.30;;;14.40;75.80;;;;;;5074244;28;20028;-47
2022/11/09 03:00:15;;;;;;;10.07;2.50;;;14.30;76.00;;;;;;5074199;28;20477;-48
2022/11/09 03:02:41;;;;;;;2.85;0.82;;;14.40;75.80;;;;;;5074634;28;20029;-50
2022/11/09 03:05:07;;;;;;;3.95;1.33;;;14.30;76.00;;;;;;5073860;28;20042;-46
2022/11/09 03:07:32;;;;;;;3.38;1.15;;;14.30;75.90;;;;;;5072805;28;20024;-49
2022/11/09 03:09:58;;;;;;;3.38;1.15;;;14.20;76.30;;;;;;5074112;28;20029;-48
2022/11/09 03:12:30;;;;;;;6.47;0.90;;;14.20;76.40;;;;;;5074291;28;20559;-47
2022/11/09 03:15:00;;;;;;;6.18;1.42;;;14.20;76.20;;;;;;5074215;28;20467;-48
2022/11/09 03:17:26;;;;;;;3.75;1.02;;;14.30;76.10;;;;;;5073874;28;20035;-49
2022/11/09 03:19:52;;;;;;;2.88;0.80;;;14.20;76.10;;;;;;5073831;28;20025;-47
2022/11/09 03:22:19;;;;;;;5.22;1.30;;;14.30;76.10;;;;;;5073764;28;20154;-50
2022/11/09 03:24:44;;;;;;;2.92;1.30;;;14.30;75.90;;;;;;5074016;28;20498;-48
2022/11/09 03:27:10;;;;;;;6.25;1.30;;;14.30;75.80;;;;;;5073713;28;20056;-48
2022/11/09 03:29:36;;;;;;;3.38;1.38;;;14.20;75.80;;;;;;5072535;28;20024;-47
2022/11/09 03:32:02;;;;;;;1.58;1.02;;;14.30;75.70;;;;;;5072410;28;20028;-48
2022/11/09 03:34:27;;;;;;;4.22;1.05;;;14.30;75.60;;;;;;5073635;28;20400;-48
2022/11/09 03:36:53;;;;;;;2.10;1.17;;;14.20;76.20;;;;;;5073598;28;20054;-50
2022/11/09 03:39:18;;;;;;;6.35;1.73;;;14.30;76.00;;;;;;5073489;28;20028;-47
2022/11/09 03:41:44;;;;;;;4.95;1.15;;;14.40;75.20;;;;;;5073786;28;20036;-49
2022/11/09 03:44:10;;;;;;;5.30;1.05;;;14.40;75.30;;;;;;5073582;28;20036;-48
2022/11/09 03:46:35;;;;;;;3.17;1.27;;;14.40;75.00;;;;;;5073468;28;20025;-50
2022/11/09 03:49:01;;;;;;;7.65;1.20;;;14.40;75.10;;;;;;5073799;28;20020;-48
2022/11/09 03:51:26;;;;;;;4.18;1.40;;;14.50;75.00;;;;;;5072151;28;20108;-48
2022/11/09 03:53:52;;;;;;;2.33;1.10;;;14.50;74.60;;;;;;5073451;28;20020;-47
2022/11/09 03:56:18;;;;;;;5.47;1.75;;;14.40;75.00;;;;;;5073392;28;20076;-48
2022/11/09 03:58:43;;;;;;;5.57;1.55;;;14.40;74.80;;;;;;5073268;28;20104;-48
2022/11/09 04:01:09;;;;;;;8.45;1.73;;;14.40;74.90;;;;;;5073205;28;20453;-48
2022/11/09 04:03:36;;;;;;;9.38;1.83;;;14.40;74.90;;;;;;5073580;28;20056;-51
2022/11/09 04:06:02;;;;;;;3.78;1.60;;;14.40;75.00;;;;;;5073270;28;20040;-47
2022/11/09 04:08:28;;;;;;;5.20;1.70;;;14.30;75.20;;;;;;5071994;28;20081;-50
2022/11/09 04:10:54;;;;;;;9.90;2.85;;;14.30;75.10;;;;;;5073330;28;20099;-49
2022/11/09 04:13:19;;;;;;;4.47;1.92;;;14.30;75.30;;;;;;5073486;28;20032;-48
2022/11/09 04:15:45;;;;;;;4.93;1.55;;;14.40;75.00;;;;;;5073208;28;20029;-48
2022/11/09 04:18:15;;;;;;;8.13;1.48;;;14.40;75.00;;;;;;5073396;28;20038;-48
2022/11/09 04:20:41;;;;;;;6.75;1.35;;;14.50;74.70;;;;;;5073406;28;20028;-50
2022/11/09 04:23:08;;;;;;;3.67;1.63;;;14.50;74.90;;;;;;5073422;28;20044;-47
2022/11/09 04:25:36;;;;;;;2.38;1.20;;;14.60;74.60;;;;;;5072946;28;20369;-49
2022/11/09 04:28:03;;;;;;;4.68;1.40;;;14.50;74.80;;;;;;5073022;28;20482;-47
2022/11/09 04:30:31;;;;;;;2.83;1.00;;;14.50;75.10;;;;;;5073092;28;20060;-48
2022/11/09 04:32:58;;;;;;;11.77;2.28;;;14.40;75.20;;;;;;5072951;28;20025;-48
2022/11/09 04:35:26;;;;;;;4.60;1.40;;;14.50;75.10;;;;;;5073435;28;20021;-48
2022/11/09 04:37:55;;;;;;;4.40;1.30;;;14.50;74.90;;;;;;5073454;28;20032;-51
2022/11/09 04:40:22;;;;;;;6.60;1.50;;;14.50;75.00;;;;;;5073866;28;20028;-50
2022/11/09 04:42:48;;;;;;;3.80;0.93;;;14.60;75.00;;;;;;5073274;28;20104;-48
2022/11/09 04:45:13;;;;;;;4.32;1.30;;;14.60;74.70;;;;;;5073047;28;20124;-48
2022/11/09 04:47:39;;;;;;;8.23;2.28;;;14.60;74.60;;;;;;5073469;28;20086;-49
2022/11/09 04:50:05;;;;;;;6.85;1.05;;;14.70;74.70;;;;;;5073165;28;20491;-49
2022/11/09 04:52:31;;;;;;;2.10;1.23;;;14.60;74.80;;;;;;5072908;28;20464;-48
2022/11/09 04:54:57;;;;;;;4.57;1.10;;;14.60;74.90;;;;;;5073215;28;20054;-48
2022/11/09 04:57:22;;;;;;;10.57;1.70;;;14.70;74.60;;;;;;5072764;28;20025;-49
2022/11/09 04:59:48;;;;;;;5.50;1.65;;;14.60;74.80;;;;;;5072868;28;20025;-47
2022/11/09 05:02:13;;;;;;;3.92;1.50;;;14.60;74.70;;;;;;5072853;28;20025;-51
2022/11/09 05:04:39;;;;;;;3.08;1.42;;;14.60;74.80;;;;;;5072718;28;20032;-51
2022/11/09 05:07:05;;;;;;;6.10;1.40;;;14.60;74.80;;;;;;5072377;28;20044;-48
2022/11/09 05:09:30;;;;;;;7.15;1.50;;;14.60;75.30;;;;;;5072796;28;20070;-47
2022/11/09 05:11:56;;;;;;;2.70;1.17;;;14.60;75.40;;;;;;5072778;28;20032;-48
2022/11/09 05:14:21;;;;;;;6.65;1.80;;;14.70;75.70;;;;;;5074682;28;20469;-48
2022/11/09 05:16:47;;;;;;;4.35;1.52;;;14.50;76.00;;;;;;5076402;28;20020;-49
2022/11/09 05:19:12;;;;;;;7.35;1.92;;;14.50;76.70;;;;;;5076630;28;20036;-48
2022/11/09 05:21:38;;;;;;;6.57;2.15;;;14.30;77.40;;;;;;5076115;28;20365;-50
2022/11/09 05:24:04;;;;;;;4.93;1.88;;;14.20;78.10;;;;;;5076182;28;20025;-48
2022/11/09 05:26:34;;;;;;;5.30;1.50;;;14.30;78.30;;;;;;5075745;28;20082;-48
2022/11/09 05:29:01;;;;;;;6.82;1.95;;;14.20;78.90;;;;;;5076055;28;20028;-48
2022/11/09 05:31:27;;;;;;;4.85;1.70;;;14.10;79.90;;;;;;5076011;28;20029;-47
2022/11/09 05:33:53;;;;;;;6.03;1.45;;;14.00;80.70;;;;;;5075083;28;20052;-48
2022/11/09 05:36:20;;;;;;;5.47;1.83;;;13.90;80.80;;;;;;5075966;28;20032;-50
2022/11/09 05:38:46;;;;;;;6.43;1.67;;;13.80;80.80;;;;;;5075702;28;20028;-50
2022/11/09 05:41:12;;;;;;;4.97;1.45;;;13.70;81.30;;;;;;5075755;28;20534;-47
2022/11/09 05:43:37;;;;;;;6.80;2.47;;;13.70;81.30;;;;;;5075567;28;20021;-51
2022/11/09 05:46:03;;;;;;;6.15;1.58;;;13.80;80.40;;;;;;5075648;28;20027;-48
2022/11/09 05:48:29;;;;;;;6.03;1.67;;;13.80;80.80;;;;;;5075982;28;20044;-50
2022/11/09 05:50:55;;;;;;;7.03;1.60;;;13.80;80.30;;;;;;5075499;28;20073;-48
2022/11/09 05:53:20;;;;;;;6.10;1.52;;;13.80;80.10;;;;;;5073936;28;20040;-49
2022/11/09 05:55:46;;;;;;;12.43;1.98;;;13.80;80.20;;;;;;5075499;28;20493;-48
2022/11/09 05:58:12;;;;;;;8.30;1.50;;;13.80;80.00;;;;;;5074411;28;20031;-49
2022/11/09 06:00:37;;;;;;;4.70;1.30;;;13.90;79.80;;;;;;5075808;28;20064;-49
2022/11/09 06:03:08;;;;;;;7.55;1.77;;;14.00;79.00;;;;;;5073733;28;20123;-49
2022/11/09 06:05:36;;;;;;;8.80;1.67;;;14.00;79.20;;;;;;5074799;28;20102;-50
2022/11/09 06:08:11;;;;;;;4.32;1.38;;;13.90;79.50;;;;;;5075008;28;20058;-51
2022/11/09 06:10:38;;;;;;;3.28;1.50;;;13.90;79.10;;;;;;5075380;28;20435;-51
2022/11/09 06:13:04;;;;;;;16.33;4.43;;;13.90;79.70;;;;;;5074860;28;20020;-47
2022/11/09 06:15:29;;;;;;;6.97;1.25;;;13.80;79.80;;;;;;5075121;28;20396;-49
2022/11/09 06:17:56;;;;;;;9.35;2.38;;;13.60;80.30;;;;;;5074906;28;20020;-48
2022/11/09 06:20:22;;;;;;;7.32;1.85;;;13.50;80.40;;;;;;5056750;28;20024;-49
2022/11/09 06:22:59;;;;;;;1.45;0.90;;;13.50;80.80;;;;;;5074824;28;20028;-47
2022/11/09 06:25:25;;;;;;;5.57;1.88;;;13.30;81.00;;;;;;5074816;28;20453;-49
2022/11/09 16:11:54;;;;;;;5.85;1.40;;;13.30;72.30;;;;;;5132327;27;20111;-49
2022/11/09 16:14:21;;;;;;;7.05;1.45;;;13.30;72.20;;;;;;5111863;28;20111;-54
2022/11/09 16:16:47;;;;;;;8.38;2.88;;;13.30;72.20;;;;;;5093716;28;20028;-48
2022/11/09 16:19:14;;;;;;;8.05;1.77;;;13.40;71.90;;;;;;5093923;28;20028;-49
2022/11/09 16:21:39;;;;;;;4.75;1.00;;;13.30;72.20;;;;;;5092705;28;20119;-49
2022/11/09 16:24:06;;;;;;;6.88;1.73;;;13.30;72.50;;;;;;5110827;28;20547;-50
2022/11/09 16:26:31;;;;;;;8.95;2.30;;;13.30;72.50;;;;;;5092608;28;20439;-49
2022/11/09 16:28:58;;;;;;;6.32;1.63;;;13.20;72.90;;;;;;5110624;28;20016;-50
2022/11/09 16:31:23;;;;;;;5.65;1.42;;;13.20;73.30;;;;;;5092655;28;20028;-51
2022/11/09 16:33:49;;;;;;;10.38;1.75;;;13.20;73.40;;;;;;5110754;28;20506;-51
2022/11/09 16:36:18;;;;;;;4.43;1.67;;;13.10;73.60;;;;;;5110742;28;20023;-49
2022/11/09 16:38:46;;;;;;;3.25;1.13;;;13.10;73.70;;;;;;5109996;28;20020;-51
2022/11/09 16:41:14;;;;;;;4.57;2.08;;;13.20;73.80;;;;;;5090750;28;20449;-50
2022/11/09 16:43:40;;;;;;;5.75;1.55;;;13.10;74.00;;;;;;5090121;28;20035;-49
2022/11/09 16:46:06;;;;;;;6.80;1.77;;;13.10;74.10;;;;;;5090313;28;20036;-48
2022/11/09 16:48:32;;;;;;;8.00;1.83;;;13.10;74.20;;;;;;5090194;28;20024;-51
2022/11/09 16:50:59;;;;;;;8.10;2.30;;;13.10;74.60;;;;;;5055359;28;20032;-49
2022/11/09 16:53:25;;;;;;;8.70;2.53;;;13.00;74.70;;;;;;5090322;28;20063;-50
2022/11/09 16:55:51;;;;;;;12.25;2.38;;;12.90;75.10;;;;;;5090207;28;20052;-50
2022/11/09 16:58:16;;;;;;;8.13;2.78;;;12.90;75.20;;;;;;5090052;28;20491;-48
2022/11/09 17:00:47;;;;;;;11.82;2.40;;;13.00;74.80;;;;;;5072262;28;20029;-47
2022/11/09 17:03:14;;;;;;;9.27;2.17;;;12.90;75.20;;;;;;5090162;28;20525;-49
2022/11/09 17:05:40;;;;;;;7.47;1.88;;;12.80;75.60;;;;;;5090069;28;20062;-49
2022/11/09 17:08:07;;;;;;;6.57;2.80;;;12.80;75.90;;;;;;5089912;28;20028;-48
2022/11/09 17:10:33;;;;;;;7.07;2.05;;;12.70;76.20;;;;;;5080042;28;20048;-48
2022/11/09 17:12:58;;;;;;;5.47;2.65;;;12.80;76.50;;;;;;5069436;28;20029;-47
2022/11/09 17:15:24;;;;;;;7.05;2.15;;;12.70;77.10;;;;;;5051455;28;20123;-49
2022/11/09 17:17:50;;;;;;;10.63;2.33;;;12.80;76.90;;;;;;5069161;28;20028;-54
2022/11/09 17:20:16;;;;;;;5.50;2.15;;;12.80;76.90;;;;;;5069019;28;20377;-48
2022/11/09 17:22:42;;;;;;;10.05;1.63;;;12.80;76.90;;;;;;5058891;28;20055;-49
2022/11/09 17:25:08;;;;;;;9.50;3.10;;;12.80;77.00;;;;;;5021736;28;20033;-48
2022/11/09 17:27:36;;;;;;;7.47;2.13;;;12.90;76.90;;;;;;5055688;28;20095;-49
2022/11/09 17:30:02;;;;;;;3.50;1.38;;;12.90;76.90;;;;;;5055898;28;20025;-51
2022/11/09 17:32:28;;;;;;;6.25;1.90;;;12.90;77.10;;;;;;5055802;28;20036;-50
2022/11/09 17:34:54;;;;;;;6.15;1.75;;;12.80;77.40;;;;;;5055750;28;20052;-49
2022/11/09 17:37:20;;;;;;;7.05;2.30;;;12.70;77.70;;;;;;5056150;28;20021;-48
2022/11/09 17:39:46;;;;;;;7.38;2.33;;;12.80;77.80;;;;;;5055715;28;20087;-49
2022/11/09 17:42:11;;;;;;;11.20;3.08;;;12.80;77.20;;;;;;5056062;28;20069;-49
2022/11/09 17:44:37;;;;;;;9.95;3.13;;;12.80;77.20;;;;;;5037845;28;20078;-49
2022/11/09 17:47:04;;;;;;;10.32;2.45;;;12.80;77.60;;;;;;5056290;28;20028;-49
2022/11/09 17:49:30;;;;;;;8.85;1.80;;;12.70;78.10;;;;;;5055930;28;20025;-50
2022/11/09 17:51:56;;;;;;;3.53;1.80;;;12.50;78.20;;;;;;5056114;28;20068;-39
2022/11/09 17:54:22;;;;;;;13.20;2.10;;;12.60;78.40;;;;;;5055574;28;20032;-39
2022/11/09 17:56:49;;;;;;;8.10;2.05;;;12.60;78.10;;;;;;5055633;28;20086;-39
2022/11/09 17:59:14;;;;;;;9.75;2.20;;;12.70;77.80;;;;;;5055731;28;20384;-38
2022/11/09 18:01:40;;;;;;;7.38;2.33;;;12.70;77.80;;;;;;5055870;28;20024;-39
2022/11/09 18:04:08;;;;;;;7.30;2.15;;;12.70;77.40;;;;;;5055450;28;20530;-39
2022/11/09 18:06:34;;;;;;;3.72;1.77;;;12.70;77.20;;;;;;5055992;28;20028;-39
2022/11/09 18:09:00;;;;;;;5.18;2.20;;;12.70;77.10;;;;;;5055518;28;20465;-40
2022/11/09 18:11:28;;;;;;;5.50;2.33;;;12.60;77.40;;;;;;5054963;28;20103;-39
2022/11/09 18:13:54;;;;;;;6.10;2.72;;;12.60;77.60;;;;;;5055095;28;20031;-39
2022/11/09 18:16:20;;;;;;;11.00;3.20;;;12.50;77.70;;;;;;5055197;28;20052;-39
2022/11/09 18:18:46;;;;;;;9.57;2.63;;;12.50;77.90;;;;;;5055122;28;20021;-40
2022/11/09 18:21:14;;;;;;;7.03;2.45;;;12.50;78.00;;;;;;5054898;28;20052;-40
2022/11/09 18:23:41;;;;;;;8.23;2.28;;;12.40;78.10;;;;;;5037117;28;20483;-39
2022/11/09 18:26:07;;;;;;;5.93;1.92;;;12.30;78.40;;;;;;5037105;28;20033;-40
2022/11/09 18:28:34;;;;;;;10.50;2.38;;;12.40;78.40;;;;;;5037024;28;20067;-39
2022/11/09 18:31:06;;;;;;;13.63;4.07;;;12.30;78.40;;;;;;5055184;28;20477;-39
2022/11/09 18:33:32;;;;;;;7.93;2.85;;;12.30;78.40;;;;;;5035944;28;20477;-40
2022/11/09 18:36:00;;;;;;;11.10;2.78;;;12.30;78.30;;;;;;5054543;28;20021;-38
2022/11/09 18:38:26;;;;;;;8.05;2.50;;;12.30;78.20;;;;;;5036739;28;20096;-38
2022/11/09 18:41:01;;;;;;;6.97;2.40;;;12.30;78.00;;;;;;5036643;28;20027;-39
2022/11/09 18:43:28;;;;;;;8.05;2.42;;;12.30;77.90;;;;;;5036640;28;20032;-39
2022/11/09 18:45:56;;;;;;;16.38;2.50;;;12.40;77.50;;;;;;5054794;28;20035;-40
2022/11/09 18:48:22;;;;;;;10.60;2.25;;;12.40;77.30;;;;;;5020275;28;20025;-39
2022/11/09 18:50:52;;;;;;;12.52;2.28;;;12.40;77.30;;;;;;5054398;28;20029;-38
2022/11/09 18:53:22;;;;;;;7.93;1.55;;;12.30;77.30;;;;;;5036477;28;20021;-39
2022/11/09 18:55:48;;;;;;;7.60;1.95;;;12.30;77.30;;;;;;5054921;28;20136;-39
2022/11/09 18:58:15;;;;;;;3.05;1.60;;;12.30;77.50;;;;;;5054157;28;20025;-39
2022/11/09 19:00:42;;;;;;;8.15;2.70;;;12.30;77.60;;;;;;5054081;28;20492;-40
2022/11/09 19:03:15;;;;;;;5.57;1.67;;;12.30;77.60;;;;;;5054108;28;20477;-38
2022/11/09 19:05:42;;;;;;;8.45;1.90;;;12.30;77.40;;;;;;5036080;28;20028;-39
2022/11/09 19:08:08;;;;;;;7.30;1.40;;;12.30;77.50;;;;;;5054333;28;20530;-40
2022/11/09 19:10:35;;;;;;;6.65;3.67;;;12.30;77.30;;;;;;5053930;28;20143;-39
2022/11/09 19:13:01;;;;;;;8.05;1.65;;;12.30;77.30;;;;;;5036356;28;20036;-39
2022/11/09 19:15:27;;;;;;;6.60;1.42;;;12.30;77.20;;;;;;5054193;28;20017;-39
2022/11/09 19:17:53;;;;;;;10.35;2.38;;;12.30;77.20;;;;;;5053995;28;20465;-39
2022/11/09 19:20:19;;;;;;;5.05;2.15;;;12.40;77.00;;;;;;5053994;28;20025;-39
2022/11/09 19:22:46;;;;;;;4.57;1.45;;;12.50;76.60;;;;;;5054167;28;20037;-40
2022/11/09 19:25:12;;;;;;;13.73;2.83;;;12.50;76.90;;;;;;5053849;28;20033;-39
2022/11/09 19:27:38;;;;;;;6.88;1.52;;;12.50;77.00;;;;;;5054122;28;20532;-38
2022/11/09 19:30:04;;;;;;;6.82;1.85;;;12.50;77.00;;;;;;5053776;28;20126;-38
2022/11/09 19:32:30;;;;;;;6.15;2.70;;;12.40;77.20;;;;;;5053549;28;20032;-40
2022/11/09 19:34:56;;;;;;;8.20;2.03;;;12.30;77.50;;;;;;5053723;28;20021;-38
2022/11/09 19:37:21;;;;;;;3.08;1.55;;;12.30;77.70;;;;;;5053964;28;20059;-39
2022/11/09 19:39:47;;;;;;;7.53;2.85;;;12.30;78.10;;;;;;5053888;28;20083;-39
2022/11/09 19:42:13;;;;;;;9.10;2.88;;;12.30;78.10;;;;;;5053972;28;20071;-38
2022/11/09 19:44:39;;;;;;;11.30;1.75;;;12.30;78.30;;;;;;5053405;28;20017;-39
2022/11/09 19:47:05;;;;;;;10.00;2.17;;;12.20;78.50;;;;;;5035689;28;20546;-37
2022/11/09 19:49:30;;;;;;;3.47;1.92;;;12.20;78.60;;;;;;5053457;28;20055;-38
2022/11/09 19:51:56;;;;;;;15.65;2.45;;;12.10;78.80;;;;;;5035610;28;20402;-39
2022/11/09 19:54:22;;;;;;;5.82;2.20;;;12.10;78.60;;;;;;5053673;28;20035;-38
2022/11/09 19:56:47;;;;;;;2.92;1.25;;;12.20;78.50;;;;;;5053409;28;20036;-39
2022/11/09 19:59:14;;;;;;;5.50;2.03;;;12.20;78.40;;;;;;5053463;28;20108;-44
2022/11/09 20:01:40;;;;;;;5.53;1.38;;;12.10;78.80;;;;;;5053632;28;20096;-39
2022/11/09 20:04:07;;;;;;;15.10;2.17;;;12.10;78.80;;;;;;5053183;28;20025;-40
2022/11/09 20:06:35;;;;;;;9.13;2.05;;;12.10;79.00;;;;;;5053453;28;20465;-41
2022/11/09 20:09:04;;;;;;;5.30;1.85;;;12.00;79.00;;;;;;5035366;28;20021;-38
2022/11/09 20:14:17;;;;;;;12.60;2.67;;;12.10;78.90;;;;;;5054010;28;20579;-38
2022/11/09 20:16:43;;;;;;;4.40;1.75;;;12.00;78.90;;;;;;5053652;28;20021;-39
2022/11/09 20:19:11;;;;;;;7.95;2.03;;;12.00;79.20;;;;;;5053541;28;20029;-39
2022/11/09 20:21:38;;;;;;;13.15;2.05;;;11.90;79.30;;;;;;5035335;28;20083;-40
2022/11/09 20:24:05;;;;;;;6.65;1.77;;;11.90;79.50;;;;;;5053427;28;20021;-39
2022/11/09 20:26:31;;;;;;;10.43;2.30;;;11.90;79.60;;;;;;5053296;28;20366;-39
2022/11/09 20:28:57;;;;;;;12.65;2.70;;;11.80;79.70;;;;;;5053187;28;20025;-39
2022/11/09 20:31:23;;;;;;;7.22;1.95;;;11.90;79.80;;;;;;5053359;28;20465;-39
2022/11/09 20:33:49;;;;;;;9.65;2.80;;;11.80;79.90;;;;;;5053077;28;20017;-39
2022/11/09 20:36:15;;;;;;;7.53;2.55;;;11.80;80.10;;;;;;5053168;28;20029;-38
2022/11/09 20:38:41;;;;;;;11.98;3.15;;;11.80;80.30;;;;;;5053475;28;20032;-38
2022/11/09 20:41:10;;;;;;;11.75;2.53;;;11.80;80.20;;;;;;5054245;28;20108;-39
2022/11/09 20:43:36;;;;;;;4.97;2.53;;;11.60;80.60;;;;;;5053603;28;20021;-38
2022/11/09 20:46:07;;;;;;;6.47;1.85;;;11.60;80.80;;;;;;5054571;28;20036;-40
2022/11/09 20:48:32;;;;;;;;;;;11.60;80.80;;;;;;5054275;28;20052;-44
2022/11/09 20:51:03;;;;;;;11.23;3.25;;;11.60;80.70;;;;;;5054438;28;19909;-39
2022/11/09 20:53:28;;;;;;;9.93;2.45;;;11.50;80.90;;;;;;5054678;28;20052;-39
2022/11/09 20:55:54;;;;;;;5.97;2.00;;;11.50;81.00;;;;;;5055067;28;20021;-39
2022/11/09 20:58:20;;;;;;;11.70;2.42;;;11.50;80.90;;;;;;5057155;28;20477;-39
2022/11/09 21:00:45;;;;;;;10.18;2.47;;;11.40;81.00;;;;;;5040087;28;20063;-38
2022/11/09 21:03:11;;;;;;;11.57;2.85;;;11.40;81.10;;;;;;5058406;28;20067;-39
2022/11/09 21:05:36;;;;;;;10.02;2.13;;;11.40;81.00;;;;;;5058455;28;20383;-40
2022/11/09 21:08:02;;;;;;;7.65;3.47;;;11.40;81.20;;;;;;5058227;28;20025;-39
2022/11/09 21:10:28;;;;;;;10.93;3.10;;;11.50;81.00;;;;;;5056724;28;20516;-39
2022/11/09 21:12:54;;;;;;;8.15;2.10;;;11.40;81.10;;;;;;5039124;28;20017;-39
2022/11/09 21:15:20;;;;;;;4.00;2.15;;;11.30;81.30;;;;;;5056601;28;20040;-39
2022/11/09 21:17:46;;;;;;;12.35;2.78;;;11.30;81.50;;;;;;5056191;28;20420;-38
2022/11/09 21:20:12;;;;;;;6.13;1.58;;;11.30;81.30;;;;;;5056185;28;20112;-40
2022/11/09 21:31:04;;;;;;;8.15;2.63;;;11.30;81.80;;;;;;5056329;28;20032;-38
2022/11/09 21:33:30;;;;;;;10.60;3.20;;;11.30;81.70;;;;;;5055951;28;20128;-38
2022/11/09 21:35:56;;;;;;;14.63;3.08;;;11.30;81.80;;;;;;5037717;28;20117;-38
2022/11/09 21:38:21;;;;;;;8.90;2.85;;;11.20;82.00;;;;;;5055548;28;20024;-38
2022/11/09 21:40:48;;;;;;;6.97;1.95;;;11.30;81.80;;;;;;5055714;28;20029;-38
2022/11/09 21:43:14;;;;;;;10.73;2.88;;;11.30;82.00;;;;;;5055703;28;20048;-43
2022/11/09 21:45:40;;;;;;;7.30;1.88;;;11.20;82.20;;;;;;5055660;28;20029;-38
2022/11/09 21:48:09;;;;;;;8.93;3.72;;;11.20;82.40;;;;;;5055383;28;20507;-38
2022/11/09 21:50:34;;;;;;;11.18;1.95;;;11.20;82.30;;;;;;5055293;28;20029;-38
2022/11/09 21:53:00;;;;;;;9.65;2.10;;;11.30;82.30;;;;;;5055332;28;20032;-38
2022/11/09 21:55:26;;;;;;;10.30;3.00;;;11.20;82.40;;;;;;5055776;28;20021;-38
2022/11/09 21:57:52;;;;;;;10.30;2.55;;;11.20;82.60;;;;;;5055328;28;20017;-39
2022/11/09 22:00:18;;;;;;;14.25;4.00;;;11.20;82.70;;;;;;5055647;28;20025;-38
2022/11/09 22:02:44;;;;;;;10.98;3.20;;;11.20;82.90;;;;;;5055477;28;20025;-38
2022/11/09 22:05:09;;;;;;;12.60;2.70;;;11.20;82.70;;;;;;5055099;28;20503;-38
2022/11/09 22:07:35;;;;;;;12.15;3.08;;;11.20;82.90;;;;;;5037065;28;20031;-39
2022/11/09 22:10:01;;;;;;;11.25;2.35;;;11.10;83.00;;;;;;5055140;28;20076;-39
2022/11/09 22:17:55;;;;;;;10.20;3.10;;;11.00;83.30;;;;;;5054985;28;20028;-40
2022/11/09 22:23:07;;;;;;;10.98;3.13;;;11.10;83.70;;;;;;5055002;28;20036;-39
2022/11/09 22:25:33;;;;;;;4.93;2.10;;;10.90;83.80;;;;;;5054798;28;20110;-39
2022/11/09 22:27:59;;;;;;;12.73;3.55;;;11.00;83.90;;;;;;5055407;28;20033;-39
2022/11/09 22:30:25;;;;;;;12.05;2.88;;;10.90;83.90;;;;;;5054678;28;20127;-40
2022/11/09 22:32:51;;;;;;;9.73;2.70;;;10.90;83.80;;;;;;5054546;28;20025;-39
2022/11/09 22:35:16;;;;;;;19.05;4.13;;;10.90;83.80;;;;;;5055108;28;20025;-39
2022/11/09 22:37:42;;;;;;;15.38;2.90;;;10.90;83.90;;;;;;5054704;28;20031;-38
2022/11/09 22:40:08;;;;;;;10.20;2.13;;;10.90;84.10;;;;;;5054731;28;20108;-41
2022/11/09 22:42:34;;;;;;;12.73;4.72;;;10.90;84.00;;;;;;5036728;28;20029;-40
2022/11/09 22:44:59;;;;;;;13.50;3.28;;;10.90;84.20;;;;;;5054461;28;20409;-40